sensor_id;sensor_type;location;lat;lon;timestamp;temperature;humidity
54485;DHT22;45006;56.958;24.166;2023-11-19T00:02:17;21.90;72.50
54485;DHT22;45006;56.958;24.166;2023-11-19T00:04:45;21.90;72.50
54485;DHT22;45006;56.958;24.166;2023-11-19T00:07:12;21.90;72.60
54485;DHT22;45006;56.958;24.166;2023-11-19T00:09:40;22.00;72.70
54485;DHT22;45006;56.958;24.166;2023-11-19T00:12:07;22.00;72.80
54485;DHT22;45006;56.958;24.166;2023-11-19T00:14:34;22.00;72.90
54485;DHT22;45006;56.958;24.166;2023-11-19T00:17:01;22.00;72.90
54485;DHT22;45006;56.958;24.166;2023-11-19T00:19:28;22.00;73.00
54485;DHT22;45006;56.958;24.166;2023-11-19T00:21:55;22.00;73.20
54485;DHT22;45006;56.958;24.166;2023-11-19T00:24:22;22.00;73.10
54485;DHT22;45006;56.958;24.166;2023-11-19T00:26:49;22.00;73.20
54485;DHT22;45006;56.958;24.166;2023-11-19T00:29:16;22.00;73.10
54485;DHT22;45006;56.958;24.166;2023-11-19T00:31:45;22.00;73.20
54485;DHT22;45006;56.958;24.166;2023-11-19T00:34:12;22.00;73.30
54485;DHT22;45006;56.958;24.166;2023-11-19T00:36:40;22.00;73.30
54485;DHT22;45006;56.958;24.166;2023-11-19T00:39:07;22.00;73.40
54485;DHT22;45006;56.958;24.166;2023-11-19T00:41:34;22.00;73.50
54485;DHT22;45006;56.958;24.166;2023-11-19T00:44:01;22.00;73.50
54485;DHT22;45006;56.958;24.166;2023-11-19T00:46:28;22.00;73.50
54485;DHT22;45006;56.958;24.166;2023-11-19T00:48:55;22.00;73.40
54485;DHT22;45006;56.958;24.166;2023-11-19T00:51:25;22.00;73.40
54485;DHT22;45006;56.958;24.166;2023-11-19T00:53:53;22.00;73.50
54485;DHT22;45006;56.958;24.166;2023-11-19T00:56:20;22.00;73.70
54485;DHT22;45006;56.958;24.166;2023-11-19T00:58:46;22.00;73.70
54485;DHT22;45006;56.958;24.166;2023-11-19T01:01:14;22.00;73.70
54485;DHT22;45006;56.958;24.166;2023-11-19T01:03:41;22.00;73.80
54485;DHT22;45006;56.958;24.166;2023-11-19T01:06:08;22.00;73.90
54485;DHT22;45006;56.958;24.166;2023-11-19T01:08:35;22.00;74.00
54485;DHT22;45006;56.958;24.166;2023-11-19T01:11:03;22.00;74.10
54485;DHT22;45006;56.958;24.166;2023-11-19T01:13:31;22.00;74.10
54485;DHT22;45006;56.958;24.166;2023-11-19T01:15:58;22.00;74.00
54485;DHT22;45006;56.958;24.166;2023-11-19T01:18:25;22.10;74.20
54485;DHT22;45006;56.958;24.166;2023-11-19T01:20:52;22.00;74.10
54485;DHT22;45006;56.958;24.166;2023-11-19T01:23:19;22.10;74.30
54485;DHT22;45006;56.958;24.166;2023-11-19T01:25:46;22.10;74.30
54485;DHT22;45006;56.958;24.166;2023-11-19T01:28:13;22.10;74.40
54485;DHT22;45006;56.958;24.166;2023-11-19T01:30:40;22.10;74.40
54485;DHT22;45006;56.958;24.166;2023-11-19T01:33:07;22.10;74.50
54485;DHT22;45006;56.958;24.166;2023-11-19T01:35:35;22.10;74.50
54485;DHT22;45006;56.958;24.166;2023-11-19T01:38:02;22.10;74.50
54485;DHT22;45006;56.958;24.166;2023-11-19T01:40:28;22.10;74.50
54485;DHT22;45006;56.958;24.166;2023-11-19T01:42:55;22.10;74.50
54485;DHT22;45006;56.958;24.166;2023-11-19T01:45:28;22.10;74.60
54485;DHT22;45006;56.958;24.166;2023-11-19T01:47:59;22.10;74.70
54485;DHT22;45006;56.958;24.166;2023-11-19T01:50:28;22.10;74.90
54485;DHT22;45006;56.958;24.166;2023-11-19T01:52:55;22.10;74.90
54485;DHT22;45006;56.958;24.166;2023-11-19T01:55:27;22.10;74.90
54485;DHT22;45006;56.958;24.166;2023-11-19T01:57:59;22.10;75.10
54485;DHT22;45006;56.958;24.166;2023-11-19T02:00:28;22.10;75.00
54485;DHT22;45006;56.958;24.166;2023-11-19T02:02:55;22.10;75.10
54485;DHT22;45006;56.958;24.166;2023-11-19T02:05:23;22.10;75.10
54485;DHT22;45006;56.958;24.166;2023-11-19T02:07:50;22.10;75.20
54485;DHT22;45006;56.958;24.166;2023-11-19T02:10:18;22.10;75.30
54485;DHT22;45006;56.958;24.166;2023-11-19T02:12:46;22.10;75.40
54485;DHT22;45006;56.958;24.166;2023-11-19T02:15:13;22.10;75.30
54485;DHT22;45006;56.958;24.166;2023-11-19T02:17:40;22.10;75.30
54485;DHT22;45006;56.958;24.166;2023-11-19T02:20:07;22.10;75.40
54485;DHT22;45006;56.958;24.166;2023-11-19T02:22:38;22.10;75.60
54485;DHT22;45006;56.958;24.166;2023-11-19T02:25:07;22.10;75.60
54485;DHT22;45006;56.958;24.166;2023-11-19T02:30:15;22.10;75.60
54485;DHT22;45006;56.958;24.166;2023-11-19T02:32:42;22.20;75.60
54485;DHT22;45006;56.958;24.166;2023-11-19T02:35:09;22.20;75.70
54485;DHT22;45006;56.958;24.166;2023-11-19T02:37:38;22.20;75.60
54485;DHT22;45006;56.958;24.166;2023-11-19T02:40:06;22.20;75.90
54485;DHT22;45006;56.958;24.166;2023-11-19T02:42:36;22.10;75.70
54485;DHT22;45006;56.958;24.166;2023-11-19T02:45:03;22.20;75.70
54485;DHT22;45006;56.958;24.166;2023-11-19T02:47:33;22.20;75.80
54485;DHT22;45006;56.958;24.166;2023-11-19T02:50:01;22.20;75.70
54485;DHT22;45006;56.958;24.166;2023-11-19T02:52:28;22.20;75.90
54485;DHT22;45006;56.958;24.166;2023-11-19T02:54:55;22.10;75.80
54485;DHT22;45006;56.958;24.166;2023-11-19T02:57:22;22.20;75.90
54485;DHT22;45006;56.958;24.166;2023-11-19T02:59:49;22.10;75.80
54485;DHT22;45006;56.958;24.166;2023-11-19T03:02:16;22.20;75.80
54485;DHT22;45006;56.958;24.166;2023-11-19T03:04:45;22.20;75.80
54485;DHT22;45006;56.958;24.166;2023-11-19T03:07:12;22.20;75.70
54485;DHT22;45006;56.958;24.166;2023-11-19T03:09:40;22.10;75.60
54485;DHT22;45006;56.958;24.166;2023-11-19T03:12:07;22.20;75.60
54485;DHT22;45006;56.958;24.166;2023-11-19T03:14:34;22.10;75.60
54485;DHT22;45006;56.958;24.166;2023-11-19T03:17:02;22.10;75.60
54485;DHT22;45006;56.958;24.166;2023-11-19T03:19:30;22.20;75.60
54485;DHT22;45006;56.958;24.166;2023-11-19T03:21:57;22.20;75.60
54485;DHT22;45006;56.958;24.166;2023-11-19T03:24:24;22.10;75.60
54485;DHT22;45006;56.958;24.166;2023-11-19T03:26:51;22.20;75.70
54485;DHT22;45006;56.958;24.166;2023-11-19T03:29:18;22.20;75.70
54485;DHT22;45006;56.958;24.166;2023-11-19T03:31:45;22.20;75.80
54485;DHT22;45006;56.958;24.166;2023-11-19T03:34:12;22.20;76.00
54485;DHT22;45006;56.958;24.166;2023-11-19T03:36:39;22.20;75.90
54485;DHT22;45006;56.958;24.166;2023-11-19T03:39:06;22.20;75.90
54485;DHT22;45006;56.958;24.166;2023-11-19T03:41:33;22.20;75.80
54485;DHT22;45006;56.958;24.166;2023-11-19T03:44:03;22.20;75.80
54485;DHT22;45006;56.958;24.166;2023-11-19T03:46:31;22.20;75.80
54485;DHT22;45006;56.958;24.166;2023-11-19T03:48:58;22.20;75.80
54485;DHT22;45006;56.958;24.166;2023-11-19T03:51:25;22.20;75.70
54485;DHT22;45006;56.958;24.166;2023-11-19T03:53:52;22.20;75.70
54485;DHT22;45006;56.958;24.166;2023-11-19T03:56:19;22.20;75.60
54485;DHT22;45006;56.958;24.166;2023-11-19T03:58:47;22.20;75.60
54485;DHT22;45006;56.958;24.166;2023-11-19T04:01:14;22.20;75.60
54485;DHT22;45006;56.958;24.166;2023-11-19T04:03:41;22.10;75.50
54485;DHT22;45006;56.958;24.166;2023-11-19T04:06:11;22.10;75.50
54485;DHT22;45006;56.958;24.166;2023-11-19T04:08:38;22.10;75.80
54485;DHT22;45006;56.958;24.166;2023-11-19T04:11:05;22.10;75.40
54485;DHT22;45006;56.958;24.166;2023-11-19T04:13:32;22.10;75.40
54485;DHT22;45006;56.958;24.166;2023-11-19T04:16:00;22.20;75.50
54485;DHT22;45006;56.958;24.166;2023-11-19T04:18:27;22.10;75.40
54485;DHT22;45006;56.958;24.166;2023-11-19T04:20:54;22.10;75.40
54485;DHT22;45006;56.958;24.166;2023-11-19T04:23:20;22.10;75.40
54485;DHT22;45006;56.958;24.166;2023-11-19T04:25:47;22.10;75.40
54485;DHT22;45006;56.958;24.166;2023-11-19T04:28:14;22.10;75.40
54485;DHT22;45006;56.958;24.166;2023-11-19T04:30:41;22.20;75.50
54485;DHT22;45006;56.958;24.166;2023-11-19T04:33:08;22.20;75.60
54485;DHT22;45006;56.958;24.166;2023-11-19T04:35:36;22.10;75.60
54485;DHT22;45006;56.958;24.166;2023-11-19T04:38:03;22.20;75.80
54485;DHT22;45006;56.958;24.166;2023-11-19T04:40:30;22.10;75.60
54485;DHT22;45006;56.958;24.166;2023-11-19T04:42:57;22.10;75.70
54485;DHT22;45006;56.958;24.166;2023-11-19T04:45:24;22.10;75.70
54485;DHT22;45006;56.958;24.166;2023-11-19T04:47:51;22.10;75.70
54485;DHT22;45006;56.958;24.166;2023-11-19T04:50:18;22.10;75.80
54485;DHT22;45006;56.958;24.166;2023-11-19T04:52:45;22.10;76.00
54485;DHT22;45006;56.958;24.166;2023-11-19T04:55:13;22.10;75.90
54485;DHT22;45006;56.958;24.166;2023-11-19T04:57:41;22.10;75.90
54485;DHT22;45006;56.958;24.166;2023-11-19T05:00:10;22.10;75.90
54485;DHT22;45006;56.958;24.166;2023-11-19T05:02:40;22.10;76.00
54485;DHT22;45006;56.958;24.166;2023-11-19T05:05:08;22.10;76.00
54485;DHT22;45006;56.958;24.166;2023-11-19T05:07:36;22.10;76.00
54485;DHT22;45006;56.958;24.166;2023-11-19T05:10:03;22.10;75.90
54485;DHT22;45006;56.958;24.166;2023-11-19T05:12:31;22.10;75.90
54485;DHT22;45006;56.958;24.166;2023-11-19T05:14:58;22.10;75.90
54485;DHT22;45006;56.958;24.166;2023-11-19T05:17:25;22.10;75.80
54485;DHT22;45006;56.958;24.166;2023-11-19T05:19:52;22.10;75.80
54485;DHT22;45006;56.958;24.166;2023-11-19T05:22:19;22.10;75.80
54485;DHT22;45006;56.958;24.166;2023-11-19T05:24:47;22.10;75.80
54485;DHT22;45006;56.958;24.166;2023-11-19T05:27:16;22.10;76.00
54485;DHT22;45006;56.958;24.166;2023-11-19T05:29:43;22.10;76.00
54485;DHT22;45006;56.958;24.166;2023-11-19T05:32:10;22.10;76.00
54485;DHT22;45006;56.958;24.166;2023-11-19T05:34:38;22.10;76.00
54485;DHT22;45006;56.958;24.166;2023-11-19T05:37:18;22.10;76.00
54485;DHT22;45006;56.958;24.166;2023-11-19T05:39:45;22.10;75.90
54485;DHT22;45006;56.958;24.166;2023-11-19T05:42:12;22.10;75.90
54485;DHT22;45006;56.958;24.166;2023-11-19T05:44:39;22.10;76.00
54485;DHT22;45006;56.958;24.166;2023-11-19T05:47:07;22.10;76.00
54485;DHT22;45006;56.958;24.166;2023-11-19T05:49:34;22.10;76.10
54485;DHT22;45006;56.958;24.166;2023-11-19T05:52:01;22.10;76.10
54485;DHT22;45006;56.958;24.166;2023-11-19T05:54:30;22.10;76.10
54485;DHT22;45006;56.958;24.166;2023-11-19T05:56:58;22.10;76.10
54485;DHT22;45006;56.958;24.166;2023-11-19T05:59:25;22.10;76.10
54485;DHT22;45006;56.958;24.166;2023-11-19T06:01:52;22.10;76.10
54485;DHT22;45006;56.958;24.166;2023-11-19T06:04:19;22.10;76.20
54485;DHT22;45006;56.958;24.166;2023-11-19T06:06:47;22.10;76.20
54485;DHT22;45006;56.958;24.166;2023-11-19T06:09:14;22.10;76.20
54485;DHT22;45006;56.958;24.166;2023-11-19T06:11:41;22.10;76.20
54485;DHT22;45006;56.958;24.166;2023-11-19T06:14:08;22.10;76.30
54485;DHT22;45006;56.958;24.166;2023-11-19T06:16:35;22.10;76.30
54485;DHT22;45006;56.958;24.166;2023-11-19T06:19:03;22.10;76.30
54485;DHT22;45006;56.958;24.166;2023-11-19T06:21:31;22.10;76.50
54485;DHT22;45006;56.958;24.166;2023-11-19T06:23:58;22.10;76.40
54485;DHT22;45006;56.958;24.166;2023-11-19T06:26:26;22.10;76.60
54485;DHT22;45006;56.958;24.166;2023-11-19T06:28:54;22.10;76.70
54485;DHT22;45006;56.958;24.166;2023-11-19T06:31:21;22.10;76.60
54485;DHT22;45006;56.958;24.166;2023-11-19T06:33:48;22.10;76.70
54485;DHT22;45006;56.958;24.166;2023-11-19T06:36:15;22.10;76.70
54485;DHT22;45006;56.958;24.166;2023-11-19T06:38:45;22.10;76.70
54485;DHT22;45006;56.958;24.166;2023-11-19T06:41:12;22.10;76.60
54485;DHT22;45006;56.958;24.166;2023-11-19T06:43:39;22.10;76.80
54485;DHT22;45006;56.958;24.166;2023-11-19T06:46:15;22.10;76.80
54485;DHT22;45006;56.958;24.166;2023-11-19T06:48:43;22.10;76.70
54485;DHT22;45006;56.958;24.166;2023-11-19T06:51:14;22.10;76.70
54485;DHT22;45006;56.958;24.166;2023-11-19T06:53:42;22.10;76.70
54485;DHT22;45006;56.958;24.166;2023-11-19T06:56:20;22.10;76.60
54485;DHT22;45006;56.958;24.166;2023-11-19T06:58:49;22.10;76.60
54485;DHT22;45006;56.958;24.166;2023-11-19T07:01:17;22.10;76.60
54485;DHT22;45006;56.958;24.166;2023-11-19T07:03:45;22.10;76.60
54485;DHT22;45006;56.958;24.166;2023-11-19T07:06:16;22.10;76.70
54485;DHT22;45006;56.958;24.166;2023-11-19T07:08:43;22.10;76.70
54485;DHT22;45006;56.958;24.166;2023-11-19T07:11:13;22.10;76.70
54485;DHT22;45006;56.958;24.166;2023-11-19T07:13:43;22.10;76.70
54485;DHT22;45006;56.958;24.166;2023-11-19T07:16:10;22.10;76.70
54485;DHT22;45006;56.958;24.166;2023-11-19T07:18:37;22.10;76.70
54485;DHT22;45006;56.958;24.166;2023-11-19T07:21:05;22.10;76.70
54485;DHT22;45006;56.958;24.166;2023-11-19T07:23:32;22.10;76.90
54485;DHT22;45006;56.958;24.166;2023-11-19T07:26:01;22.10;77.50
54485;DHT22;45006;56.958;24.166;2023-11-19T07:28:28;22.10;76.90
54485;DHT22;45006;56.958;24.166;2023-11-19T07:30:55;22.10;77.10
54485;DHT22;45006;56.958;24.166;2023-11-19T07:33:23;22.10;77.10
54485;DHT22;45006;56.958;24.166;2023-11-19T07:35:50;22.10;77.20
54485;DHT22;45006;56.958;24.166;2023-11-19T07:38:17;22.10;77.30
54485;DHT22;45006;56.958;24.166;2023-11-19T07:40:44;22.10;77.20
54485;DHT22;45006;56.958;24.166;2023-11-19T07:43:23;22.20;77.20
54485;DHT22;45006;56.958;24.166;2023-11-19T07:45:50;22.20;77.20
54485;DHT22;45006;56.958;24.166;2023-11-19T07:48:17;22.20;77.30
54485;DHT22;45006;56.958;24.166;2023-11-19T07:50:49;22.10;77.30
54485;DHT22;45006;56.958;24.166;2023-11-19T07:53:19;22.10;77.30
54485;DHT22;45006;56.958;24.166;2023-11-19T07:55:46;22.10;77.40
54485;DHT22;45006;56.958;24.166;2023-11-19T07:58:14;22.10;77.50
54485;DHT22;45006;56.958;24.166;2023-11-19T08:00:41;22.10;77.40
54485;DHT22;45006;56.958;24.166;2023-11-19T08:03:08;22.10;77.50
54485;DHT22;45006;56.958;24.166;2023-11-19T08:05:35;22.10;77.50
54485;DHT22;45006;56.958;24.166;2023-11-19T08:08:03;22.10;77.20
54485;DHT22;45006;56.958;24.166;2023-11-19T08:10:30;22.10;76.80
54485;DHT22;45006;56.958;24.166;2023-11-19T08:12:57;22.10;76.30
54485;DHT22;45006;56.958;24.166;2023-11-19T08:15:24;22.10;75.70
54485;DHT22;45006;56.958;24.166;2023-11-19T08:17:53;22.10;75.40
54485;DHT22;45006;56.958;24.166;2023-11-19T08:20:20;22.10;75.20
54485;DHT22;45006;56.958;24.166;2023-11-19T08:22:47;22.10;75.30
54485;DHT22;45006;56.958;24.166;2023-11-19T08:25:15;22.20;74.60
54485;DHT22;45006;56.958;24.166;2023-11-19T08:27:42;22.30;73.20
54485;DHT22;45006;56.958;24.166;2023-11-19T08:30:10;22.30;71.70
54485;DHT22;45006;56.958;24.166;2023-11-19T08:32:37;22.30;71.50
54485;DHT22;45006;56.958;24.166;2023-11-19T08:35:04;22.20;71.30
54485;DHT22;45006;56.958;24.166;2023-11-19T08:37:32;22.20;71.80
54485;DHT22;45006;56.958;24.166;2023-11-19T08:39:59;22.10;71.80
54485;DHT22;45006;56.958;24.166;2023-11-19T08:42:27;22.10;71.90
54485;DHT22;45006;56.958;24.166;2023-11-19T08:44:55;22.10;72.80
54485;DHT22;45006;56.958;24.166;2023-11-19T08:47:22;22.10;73.10
54485;DHT22;45006;56.958;24.166;2023-11-19T08:49:53;22.10;73.30
54485;DHT22;45006;56.958;24.166;2023-11-19T08:52:23;22.10;73.40
54485;DHT22;45006;56.958;24.166;2023-11-19T08:54:50;22.10;73.40
54485;DHT22;45006;56.958;24.166;2023-11-19T08:57:17;22.10;73.30
54485;DHT22;45006;56.958;24.166;2023-11-19T08:59:44;22.00;73.00
54485;DHT22;45006;56.958;24.166;2023-11-19T09:02:13;22.00;72.90
54485;DHT22;45006;56.958;24.166;2023-11-19T09:04:40;22.00;72.60
54485;DHT22;45006;56.958;24.166;2023-11-19T09:07:08;22.00;72.50
54485;DHT22;45006;56.958;24.166;2023-11-19T09:09:39;22.00;72.10
54485;DHT22;45006;56.958;24.166;2023-11-19T09:12:07;22.00;72.10
54485;DHT22;45006;56.958;24.166;2023-11-19T09:14:34;22.00;72.00
54485;DHT22;45006;56.958;24.166;2023-11-19T09:17:01;22.00;72.00
54485;DHT22;45006;56.958;24.166;2023-11-19T09:19:28;22.00;72.10
54485;DHT22;45006;56.958;24.166;2023-11-19T09:21:55;22.00;72.00
54485;DHT22;45006;56.958;24.166;2023-11-19T09:24:22;22.00;71.90
54485;DHT22;45006;56.958;24.166;2023-11-19T09:26:49;22.00;71.80
54485;DHT22;45006;56.958;24.166;2023-11-19T09:29:16;22.00;71.60
54485;DHT22;45006;56.958;24.166;2023-11-19T09:31:43;22.10;71.60
54485;DHT22;45006;56.958;24.166;2023-11-19T09:34:10;22.20;70.50
54485;DHT22;45006;56.958;24.166;2023-11-19T09:36:38;22.10;70.50
54485;DHT22;45006;56.958;24.166;2023-11-19T09:39:05;22.10;70.70
54485;DHT22;45006;56.958;24.166;2023-11-19T09:41:35;22.10;70.60
54485;DHT22;45006;56.958;24.166;2023-11-19T09:44:02;22.10;70.80
54485;DHT22;45006;56.958;24.166;2023-11-19T09:46:30;22.10;70.90
54485;DHT22;45006;56.958;24.166;2023-11-19T09:48:57;22.10;70.90
54485;DHT22;45006;56.958;24.166;2023-11-19T09:51:26;22.10;70.90
54485;DHT22;45006;56.958;24.166;2023-11-19T09:53:53;22.10;70.80
54485;DHT22;45006;56.958;24.166;2023-11-19T09:56:20;22.10;70.90
54485;DHT22;45006;56.958;24.166;2023-11-19T09:58:48;22.10;70.90
54485;DHT22;45006;56.958;24.166;2023-11-19T10:01:16;22.10;71.10
54485;DHT22;45006;56.958;24.166;2023-11-19T10:03:47;22.10;71.00
54485;DHT22;45006;56.958;24.166;2023-11-19T10:06:15;22.10;70.90
54485;DHT22;45006;56.958;24.166;2023-11-19T10:08:43;22.10;70.90
54485;DHT22;45006;56.958;24.166;2023-11-19T10:11:11;22.00;70.70
54485;DHT22;45006;56.958;24.166;2023-11-19T10:13:40;22.00;70.70
54485;DHT22;45006;56.958;24.166;2023-11-19T10:16:13;22.00;70.50
54485;DHT22;45006;56.958;24.166;2023-11-19T10:18:49;22.00;70.60
54485;DHT22;45006;56.958;24.166;2023-11-19T10:21:18;22.00;70.40
54485;DHT22;45006;56.958;24.166;2023-11-19T10:23:52;22.00;70.50
54485;DHT22;45006;56.958;24.166;2023-11-19T10:26:20;22.00;70.10
54485;DHT22;45006;56.958;24.166;2023-11-19T10:28:48;22.00;69.60
54485;DHT22;45006;56.958;24.166;2023-11-19T10:31:16;22.00;69.30
54485;DHT22;45006;56.958;24.166;2023-11-19T10:33:44;22.00;69.00
54485;DHT22;45006;56.958;24.166;2023-11-19T10:36:12;22.10;67.80
54485;DHT22;45006;56.958;24.166;2023-11-19T10:38:41;22.10;68.10
54485;DHT22;45006;56.958;24.166;2023-11-19T10:41:31;22.10;67.90
54485;DHT22;45006;56.958;24.166;2023-11-19T10:43:59;22.10;68.00
54485;DHT22;45006;56.958;24.166;2023-11-19T10:46:42;22.10;68.10
54485;DHT22;45006;56.958;24.166;2023-11-19T10:49:10;22.10;68.30
54485;DHT22;45006;56.958;24.166;2023-11-19T10:51:44;22.10;68.30
54485;DHT22;45006;56.958;24.166;2023-11-19T10:54:13;22.10;68.80
54485;DHT22;45006;56.958;24.166;2023-11-19T10:56:43;22.10;68.00
54485;DHT22;45006;56.958;24.166;2023-11-19T10:59:13;22.10;68.00
54485;DHT22;45006;56.958;24.166;2023-11-19T11:01:48;22.10;67.90
54485;DHT22;45006;56.958;24.166;2023-11-19T11:04:23;22.10;68.00
54485;DHT22;45006;56.958;24.166;2023-11-19T11:06:51;22.10;67.90
54485;DHT22;45006;56.958;24.166;2023-11-19T11:09:21;22.10;68.00
54485;DHT22;45006;56.958;24.166;2023-11-19T11:11:50;22.10;67.90
54485;DHT22;45006;56.958;24.166;2023-11-19T11:14:20;22.10;67.90
54485;DHT22;45006;56.958;24.166;2023-11-19T11:16:49;22.10;67.90
54485;DHT22;45006;56.958;24.166;2023-11-19T11:19:17;22.10;67.90
54485;DHT22;45006;56.958;24.166;2023-11-19T11:21:50;22.10;68.00
54485;DHT22;45006;56.958;24.166;2023-11-19T11:30:11;22.10;68.10
54485;DHT22;45006;56.958;24.166;2023-11-19T11:32:43;22.10;68.20
54485;DHT22;45006;56.958;24.166;2023-11-19T11:38:06;22.20;67.80
54485;DHT22;45006;56.958;24.166;2023-11-19T11:40:34;22.10;67.50
54485;DHT22;45006;56.958;24.166;2023-11-19T11:43:02;22.10;67.70
54485;DHT22;45006;56.958;24.166;2023-11-19T11:45:37;22.10;67.80
54485;DHT22;45006;56.958;24.166;2023-11-19T11:48:09;22.10;67.90
54485;DHT22;45006;56.958;24.166;2023-11-19T11:50:48;22.10;67.90
54485;DHT22;45006;56.958;24.166;2023-11-19T11:53:17;22.10;67.90
54485;DHT22;45006;56.958;24.166;2023-11-19T11:58:21;22.10;68.00
54485;DHT22;45006;56.958;24.166;2023-11-19T12:00:48;22.00;67.90
54485;DHT22;45006;56.958;24.166;2023-11-19T12:03:20;22.00;67.90
54485;DHT22;45006;56.958;24.166;2023-11-19T12:05:49;22.00;67.80
54485;DHT22;45006;56.958;24.166;2023-11-19T12:08:19;22.00;67.80
54485;DHT22;45006;56.958;24.166;2023-11-19T12:10:54;22.00;67.80
54485;DHT22;45006;56.958;24.166;2023-11-19T12:13:42;22.00;67.90
54485;DHT22;45006;56.958;24.166;2023-11-19T12:16:11;22.00;67.80
54485;DHT22;45006;56.958;24.166;2023-11-19T12:18:39;22.00;67.80
54485;DHT22;45006;56.958;24.166;2023-11-19T12:21:07;22.00;67.80
54485;DHT22;45006;56.958;24.166;2023-11-19T12:23:44;22.00;67.70
54485;DHT22;45006;56.958;24.166;2023-11-19T12:26:34;22.00;67.60
54485;DHT22;45006;56.958;24.166;2023-11-19T12:29:01;22.00;67.90
54485;DHT22;45006;56.958;24.166;2023-11-19T12:31:34;22.00;67.70
54485;DHT22;45006;56.958;24.166;2023-11-19T12:34:06;22.00;67.70
54485;DHT22;45006;56.958;24.166;2023-11-19T12:36:34;22.00;67.60
54485;DHT22;45006;56.958;24.166;2023-11-19T12:39:01;22.00;67.40
54485;DHT22;45006;56.958;24.166;2023-11-19T12:41:28;22.10;67.30
54485;DHT22;45006;56.958;24.166;2023-11-19T12:44:09;22.10;67.30
54485;DHT22;45006;56.958;24.166;2023-11-19T12:46:36;22.00;67.40
54485;DHT22;45006;56.958;24.166;2023-11-19T12:49:03;22.00;68.00
54485;DHT22;45006;56.958;24.166;2023-11-19T12:51:32;22.00;67.30
54485;DHT22;45006;56.958;24.166;2023-11-19T12:54:00;22.00;67.40
54485;DHT22;45006;56.958;24.166;2023-11-19T12:56:27;22.00;67.40
54485;DHT22;45006;56.958;24.166;2023-11-19T12:58:54;22.00;67.40
54485;DHT22;45006;56.958;24.166;2023-11-19T13:01:21;22.00;67.40
54485;DHT22;45006;56.958;24.166;2023-11-19T13:03:48;22.00;67.40
54485;DHT22;45006;56.958;24.166;2023-11-19T13:06:16;22.00;67.40
54485;DHT22;45006;56.958;24.166;2023-11-19T13:08:48;22.00;67.60
54485;DHT22;45006;56.958;24.166;2023-11-19T13:11:33;22.00;67.40
54485;DHT22;45006;56.958;24.166;2023-11-19T13:14:03;22.00;67.30
54485;DHT22;45006;56.958;24.166;2023-11-19T13:16:37;22.00;67.40
54485;DHT22;45006;56.958;24.166;2023-11-19T13:19:04;22.00;67.30
54485;DHT22;45006;56.958;24.166;2023-11-19T13:21:32;22.00;67.20
54485;DHT22;45006;56.958;24.166;2023-11-19T13:23:59;22.00;67.30
54485;DHT22;45006;56.958;24.166;2023-11-19T13:26:26;22.00;67.40
54485;DHT22;45006;56.958;24.166;2023-11-19T13:28:53;22.00;67.40
54485;DHT22;45006;56.958;24.166;2023-11-19T13:31:20;22.00;67.50
54485;DHT22;45006;56.958;24.166;2023-11-19T13:33:48;22.00;67.50
54485;DHT22;45006;56.958;24.166;2023-11-19T13:36:15;22.00;67.60
54485;DHT22;45006;56.958;24.166;2023-11-19T13:38:43;22.00;68.00
54485;DHT22;45006;56.958;24.166;2023-11-19T13:41:15;22.10;67.20
54485;DHT22;45006;56.958;24.166;2023-11-19T13:43:42;22.10;66.90
54485;DHT22;45006;56.958;24.166;2023-11-19T13:46:09;22.10;67.00
54485;DHT22;45006;56.958;24.166;2023-11-19T13:48:39;22.10;67.00
54485;DHT22;45006;56.958;24.166;2023-11-19T13:51:06;22.10;66.80
54485;DHT22;45006;56.958;24.166;2023-11-19T13:53:33;22.00;66.50
54485;DHT22;45006;56.958;24.166;2023-11-19T13:56:03;22.00;66.20
54485;DHT22;45006;56.958;24.166;2023-11-19T13:58:30;22.00;65.80
54485;DHT22;45006;56.958;24.166;2023-11-19T14:00:58;22.00;65.60
54485;DHT22;45006;56.958;24.166;2023-11-19T14:03:25;22.00;65.00
54485;DHT22;45006;56.958;24.166;2023-11-19T14:05:53;21.90;64.70
54485;DHT22;45006;56.958;24.166;2023-11-19T14:08:22;21.90;64.20
54485;DHT22;45006;56.958;24.166;2023-11-19T14:10:52;21.90;64.00
54485;DHT22;45006;56.958;24.166;2023-11-19T14:13:23;21.90;63.60
54485;DHT22;45006;56.958;24.166;2023-11-19T14:15:50;21.90;63.40
54485;DHT22;45006;56.958;24.166;2023-11-19T14:18:18;21.90;63.20
54485;DHT22;45006;56.958;24.166;2023-11-19T14:20:47;21.90;63.20
54485;DHT22;45006;56.958;24.166;2023-11-19T14:23:14;21.90;62.40
54485;DHT22;45006;56.958;24.166;2023-11-19T14:25:41;21.90;62.90
54485;DHT22;45006;56.958;24.166;2023-11-19T14:28:08;21.90;63.70
54485;DHT22;45006;56.958;24.166;2023-11-19T14:30:35;21.90;63.80
54485;DHT22;45006;56.958;24.166;2023-11-19T14:33:02;21.90;63.80
54485;DHT22;45006;56.958;24.166;2023-11-19T14:35:31;21.90;63.70
54485;DHT22;45006;56.958;24.166;2023-11-19T14:38:00;21.90;63.60
54485;DHT22;45006;56.958;24.166;2023-11-19T14:40:31;21.90;63.60
54485;DHT22;45006;56.958;24.166;2023-11-19T14:43:01;22.00;63.80
54485;DHT22;45006;56.958;24.166;2023-11-19T14:45:29;22.00;63.80
54485;DHT22;45006;56.958;24.166;2023-11-19T14:48:05;22.00;64.00
54485;DHT22;45006;56.958;24.166;2023-11-19T14:50:33;22.00;64.00
54485;DHT22;45006;56.958;24.166;2023-11-19T14:53:00;21.90;64.30
54485;DHT22;45006;56.958;24.166;2023-11-19T14:55:28;21.90;64.70
54485;DHT22;45006;56.958;24.166;2023-11-19T14:57:55;21.90;64.90
54485;DHT22;45006;56.958;24.166;2023-11-19T15:00:34;21.90;65.20
54485;DHT22;45006;56.958;24.166;2023-11-19T15:03:02;22.00;65.50
54485;DHT22;45006;56.958;24.166;2023-11-19T15:05:29;21.90;65.70
54485;DHT22;45006;56.958;24.166;2023-11-19T15:07:56;22.00;66.00
54485;DHT22;45006;56.958;24.166;2023-11-19T15:10:23;22.00;66.10
54485;DHT22;45006;56.958;24.166;2023-11-19T15:12:52;22.00;66.30
54485;DHT22;45006;56.958;24.166;2023-11-19T15:15:20;21.90;66.40
54485;DHT22;45006;56.958;24.166;2023-11-19T15:17:50;21.90;66.40
54485;DHT22;45006;56.958;24.166;2023-11-19T15:20:17;21.90;66.50
54485;DHT22;45006;56.958;24.166;2023-11-19T15:22:46;21.90;66.70
54485;DHT22;45006;56.958;24.166;2023-11-19T15:25:13;21.90;66.80
54485;DHT22;45006;56.958;24.166;2023-11-19T15:27:40;21.90;66.90
54485;DHT22;45006;56.958;24.166;2023-11-19T15:30:08;21.90;67.10
54485;DHT22;45006;56.958;24.166;2023-11-19T15:32:37;21.90;67.20
54485;DHT22;45006;56.958;24.166;2023-11-19T15:35:06;21.90;67.40
54485;DHT22;45006;56.958;24.166;2023-11-19T15:37:34;21.90;67.50